sensor_id;sensor_type;location;lat;lon;timestamp;temperature;humidity
4874;DHT22;2451;49.970;9.068;2022-08-03T00:01:57;20.00;99.90
4874;DHT22;2451;49.970;9.068;2022-08-03T00:04:23;19.90;99.90
4874;DHT22;2451;49.970;9.068;2022-08-03T00:06:48;20.00;99.90
4874;DHT22;2451;49.970;9.068;2022-08-03T00:09:14;19.90;99.90
4874;DHT22;2451;49.970;9.068;2022-08-03T00:11:40;19.90;99.90
4874;DHT22;2451;49.970;9.068;2022-08-03T00:14:06;19.90;99.90
4874;DHT22;2451;49.970;9.068;2022-08-03T00:16:32;19.90;99.90
4874;DHT22;2451;49.970;9.068;2022-08-03T00:18:57;19.90;99.90
4874;DHT22;2451;49.970;9.068;2022-08-03T00:21:23;19.90;99.90
4874;DHT22;2451;49.970;9.068;2022-08-03T00:23:49;19.80;99.90
4874;DHT22;2451;49.970;9.068;2022-08-03T00:26:14;19.80;99.90
4874;DHT22;2451;49.970;9.068;2022-08-03T00:28:40;19.80;99.90
4874;DHT22;2451;49.970;9.068;2022-08-03T00:31:06;19.70;99.90
4874;DHT22;2451;49.970;9.068;2022-08-03T00:33:32;19.70;99.90
4874;DHT22;2451;49.970;9.068;2022-08-03T00:35:58;19.70;99.90
4874;DHT22;2451;49.970;9.068;2022-08-03T00:38:23;19.60;99.90
4874;DHT22;2451;49.970;9.068;2022-08-03T00:40:49;19.60;99.90
4874;DHT22;2451;49.970;9.068;2022-08-03T00:43:14;19.60;99.90
4874;DHT22;2451;49.970;9.068;2022-08-03T00:45:41;19.60;99.90
4874;DHT22;2451;49.970;9.068;2022-08-03T00:48:08;19.60;99.90
4874;DHT22;2451;49.970;9.068;2022-08-03T00:50:38;19.50;99.90
4874;DHT22;2451;49.970;9.068;2022-08-03T00:53:04;19.50;99.90
4874;DHT22;2451;49.970;9.068;2022-08-03T00:55:30;19.50;99.90
4874;DHT22;2451;49.970;9.068;2022-08-03T00:57:56;19.50;99.90
4874;DHT22;2451;49.970;9.068;2022-08-03T01:00:25;19.40;99.90
4874;DHT22;2451;49.970;9.068;2022-08-03T01:02:51;19.50;99.90
4874;DHT22;2451;49.970;9.068;2022-08-03T01:05:17;19.40;99.90
4874;DHT22;2451;49.970;9.068;2022-08-03T01:08:03;19.40;99.90
4874;DHT22;2451;49.970;9.068;2022-08-03T01:13:48;19.30;99.90
4874;DHT22;2451;49.970;9.068;2022-08-03T01:16:09;19.30;99.90
4874;DHT22;2451;49.970;9.068;2022-08-03T01:18:49;19.20;99.90
4874;DHT22;2451;49.970;9.068;2022-08-03T01:21:30;19.20;99.90
4874;DHT22;2451;49.970;9.068;2022-08-03T01:24:11;19.20;99.90
4874;DHT22;2451;49.970;9.068;2022-08-03T01:26:53;19.20;99.90
4874;DHT22;2451;49.970;9.068;2022-08-03T01:34:59;19.10;99.90
4874;DHT22;2451;49.970;9.068;2022-08-03T01:37:34;19.10;99.90
4874;DHT22;2451;49.970;9.068;2022-08-03T01:40:02;19.10;99.90
4874;DHT22;2451;49.970;9.068;2022-08-03T01:42:29;19.10;99.90
4874;DHT22;2451;49.970;9.068;2022-08-03T01:44:57;19.10;99.90
4874;DHT22;2451;49.970;9.068;2022-08-03T01:47:24;19.00;99.90
4874;DHT22;2451;49.970;9.068;2022-08-03T01:49:50;19.00;99.90
4874;DHT22;2451;49.970;9.068;2022-08-03T01:52:18;18.90;99.90
4874;DHT22;2451;49.970;9.068;2022-08-03T01:54:48;18.90;99.90
4874;DHT22;2451;49.970;9.068;2022-08-03T01:57:15;18.90;99.90
4874;DHT22;2451;49.970;9.068;2022-08-03T01:59:42;18.90;99.90
4874;DHT22;2451;49.970;9.068;2022-08-03T02:02:11;18.80;99.90
4874;DHT22;2451;49.970;9.068;2022-08-03T02:04:40;18.80;99.90
4874;DHT22;2451;49.970;9.068;2022-08-03T02:07:08;18.80;99.90
4874;DHT22;2451;49.970;9.068;2022-08-03T02:09:37;18.80;99.90
4874;DHT22;2451;49.970;9.068;2022-08-03T02:12:09;18.80;99.90
4874;DHT22;2451;49.970;9.068;2022-08-03T02:14:37;18.80;99.90
4874;DHT22;2451;49.970;9.068;2022-08-03T02:17:05;18.80;99.90
4874;DHT22;2451;49.970;9.068;2022-08-03T02:19:32;18.80;99.90
4874;DHT22;2451;49.970;9.068;2022-08-03T02:21:59;18.80;99.90
4874;DHT22;2451;49.970;9.068;2022-08-03T02:24:25;18.80;99.90
4874;DHT22;2451;49.970;9.068;2022-08-03T02:26:54;18.80;99.90
4874;DHT22;2451;49.970;9.068;2022-08-03T02:29:21;18.80;99.90
4874;DHT22;2451;49.970;9.068;2022-08-03T02:31:48;18.70;99.90
4874;DHT22;2451;49.970;9.068;2022-08-03T02:34:15;18.70;99.90
4874;DHT22;2451;49.970;9.068;2022-08-03T02:36:45;18.70;99.90
4874;DHT22;2451;49.970;9.068;2022-08-03T02:39:16;18.60;99.90
4874;DHT22;2451;49.970;9.068;2022-08-03T02:41:50;18.60;99.90
4874;DHT22;2451;49.970;9.068;2022-08-03T02:44:24;18.60;99.90
4874;DHT22;2451;49.970;9.068;2022-08-03T02:46:55;18.60;99.90
4874;DHT22;2451;49.970;9.068;2022-08-03T02:49:22;18.50;99.90
4874;DHT22;2451;49.970;9.068;2022-08-03T02:51:51;18.50;99.90
4874;DHT22;2451;49.970;9.068;2022-08-03T02:54:19;18.50;99.90
4874;DHT22;2451;49.970;9.068;2022-08-03T02:56:47;18.40;99.90
4874;DHT22;2451;49.970;9.068;2022-08-03T02:59:13;18.40;99.90
4874;DHT22;2451;49.970;9.068;2022-08-03T03:01:41;18.40;99.90
4874;DHT22;2451;49.970;9.068;2022-08-03T03:04:07;18.30;99.90
4874;DHT22;2451;49.970;9.068;2022-08-03T03:06:34;18.30;99.90
4874;DHT22;2451;49.970;9.068;2022-08-03T03:09:00;18.30;99.90
4874;DHT22;2451;49.970;9.068;2022-08-03T03:11:27;18.20;99.90
4874;DHT22;2451;49.970;9.068;2022-08-03T03:13:55;18.20;99.90
4874;DHT22;2451;49.970;9.068;2022-08-03T03:16:21;18.20;99.90
4874;DHT22;2451;49.970;9.068;2022-08-03T03:18:48;18.10;99.90
4874;DHT22;2451;49.970;9.068;2022-08-03T03:21:17;18.10;99.90
4874;DHT22;2451;49.970;9.068;2022-08-03T03:23:44;18.10;99.90
4874;DHT22;2451;49.970;9.068;2022-08-03T03:26:13;18.00;99.90
4874;DHT22;2451;49.970;9.068;2022-08-03T03:28:39;18.00;99.90
4874;DHT22;2451;49.970;9.068;2022-08-03T03:31:06;18.00;99.90
4874;DHT22;2451;49.970;9.068;2022-08-03T03:33:35;18.00;99.90
4874;DHT22;2451;49.970;9.068;2022-08-03T03:36:02;17.90;99.90
4874;DHT22;2451;49.970;9.068;2022-08-03T03:38:29;17.90;99.90
4874;DHT22;2451;49.970;9.068;2022-08-03T03:40:54;17.90;99.90
4874;DHT22;2451;49.970;9.068;2022-08-03T03:43:22;17.90;99.90
4874;DHT22;2451;49.970;9.068;2022-08-03T03:45:48;17.90;99.90
4874;DHT22;2451;49.970;9.068;2022-08-03T03:48:14;17.80;99.90
4874;DHT22;2451;49.970;9.068;2022-08-03T03:50:39;17.80;99.90
4874;DHT22;2451;49.970;9.068;2022-08-03T03:53:08;17.80;99.90
4874;DHT22;2451;49.970;9.068;2022-08-03T03:55:35;17.80;99.90
4874;DHT22;2451;49.970;9.068;2022-08-03T03:58:00;17.80;99.90
4874;DHT22;2451;49.970;9.068;2022-08-03T04:00:26;17.90;99.90
4874;DHT22;2451;49.970;9.068;2022-08-03T04:02:51;17.90;99.90
4874;DHT22;2451;49.970;9.068;2022-08-03T04:05:17;17.90;99.90
4874;DHT22;2451;49.970;9.068;2022-08-03T04:08:07;18.00;99.90
4874;DHT22;2451;49.970;9.068;2022-08-03T04:11:13;18.00;99.90
4874;DHT22;2451;49.970;9.068;2022-08-03T04:14:15;18.00;99.90
4874;DHT22;2451;49.970;9.068;2022-08-03T04:16:46;17.90;99.90
4874;DHT22;2451;49.970;9.068;2022-08-03T04:19:36;17.90;99.90
4874;DHT22;2451;49.970;9.068;2022-08-03T04:22:08;17.90;99.90
4874;DHT22;2451;49.970;9.068;2022-08-03T04:24:39;17.90;99.90
4874;DHT22;2451;49.970;9.068;2022-08-03T04:27:08;17.90;99.90
4874;DHT22;2451;49.970;9.068;2022-08-03T04:29:34;17.90;99.90
4874;DHT22;2451;49.970;9.068;2022-08-03T04:32:04;17.90;99.90
4874;DHT22;2451;49.970;9.068;2022-08-03T04:34:31;18.00;99.90
4874;DHT22;2451;49.970;9.068;2022-08-03T04:36:59;18.00;99.90
4874;DHT22;2451;49.970;9.068;2022-08-03T04:39:27;18.00;99.90
4874;DHT22;2451;49.970;9.068;2022-08-03T04:42:00;18.10;99.90
4874;DHT22;2451;49.970;9.068;2022-08-03T04:44:28;18.10;99.90
4874;DHT22;2451;49.970;9.068;2022-08-03T04:46:55;18.10;99.90
4874;DHT22;2451;49.970;9.068;2022-08-03T04:49:21;18.10;99.90
4874;DHT22;2451;49.970;9.068;2022-08-03T04:51:49;18.10;99.90
4874;DHT22;2451;49.970;9.068;2022-08-03T04:54:15;18.10;99.90
4874;DHT22;2451;49.970;9.068;2022-08-03T04:56:42;18.20;99.90
4874;DHT22;2451;49.970;9.068;2022-08-03T04:59:08;18.20;99.90
4874;DHT22;2451;49.970;9.068;2022-08-03T05:01:34;18.20;99.90
4874;DHT22;2451;49.970;9.068;2022-08-03T05:03:59;18.20;99.90
4874;DHT22;2451;49.970;9.068;2022-08-03T05:06:25;18.20;99.90
4874;DHT22;2451;49.970;9.068;2022-08-03T05:08:51;18.30;99.90
4874;DHT22;2451;49.970;9.068;2022-08-03T05:11:17;18.40;99.90
4874;DHT22;2451;49.970;9.068;2022-08-03T05:13:44;18.40;99.90
4874;DHT22;2451;49.970;9.068;2022-08-03T05:16:10;18.50;99.90
4874;DHT22;2451;49.970;9.068;2022-08-03T05:18:36;18.60;99.90
4874;DHT22;2451;49.970;9.068;2022-08-03T05:21:02;18.70;99.90
4874;DHT22;2451;49.970;9.068;2022-08-03T05:23:28;18.70;99.90
4874;DHT22;2451;49.970;9.068;2022-08-03T05:25:53;18.80;99.90
4874;DHT22;2451;49.970;9.068;2022-08-03T05:28:20;18.80;99.90
4874;DHT22;2451;49.970;9.068;2022-08-03T05:30:45;18.80;99.90
4874;DHT22;2451;49.970;9.068;2022-08-03T05:33:11;18.90;99.90
4874;DHT22;2451;49.970;9.068;2022-08-03T05:35:36;18.90;99.90
4874;DHT22;2451;49.970;9.068;2022-08-03T05:38:04;19.00;99.90
4874;DHT22;2451;49.970;9.068;2022-08-03T05:40:30;19.10;99.90
4874;DHT22;2451;49.970;9.068;2022-08-03T05:42:56;19.20;99.90
4874;DHT22;2451;49.970;9.068;2022-08-03T05:45:22;19.30;99.90
4874;DHT22;2451;49.970;9.068;2022-08-03T05:47:47;19.30;99.90
4874;DHT22;2451;49.970;9.068;2022-08-03T05:50:16;19.40;99.90
4874;DHT22;2451;49.970;9.068;2022-08-03T05:52:41;19.50;99.90
4874;DHT22;2451;49.970;9.068;2022-08-03T05:55:08;19.50;99.90
4874;DHT22;2451;49.970;9.068;2022-08-03T05:57:34;19.60;99.90
4874;DHT22;2451;49.970;9.068;2022-08-03T06:00:07;19.60;99.90
4874;DHT22;2451;49.970;9.068;2022-08-03T06:02:33;19.70;99.90
4874;DHT22;2451;49.970;9.068;2022-08-03T06:04:59;19.80;99.90
4874;DHT22;2451;49.970;9.068;2022-08-03T06:07:25;19.90;99.90
4874;DHT22;2451;49.970;9.068;2022-08-03T06:09:51;20.10;99.90
4874;DHT22;2451;49.970;9.068;2022-08-03T06:12:16;20.20;99.90
4874;DHT22;2451;49.970;9.068;2022-08-03T06:14:42;20.40;99.90
4874;DHT22;2451;49.970;9.068;2022-08-03T06:17:07;20.50;99.90
4874;DHT22;2451;49.970;9.068;2022-08-03T06:19:33;20.60;99.90
4874;DHT22;2451;49.970;9.068;2022-08-03T06:21:59;20.70;99.90
4874;DHT22;2451;49.970;9.068;2022-08-03T06:24:24;20.70;99.90
4874;DHT22;2451;49.970;9.068;2022-08-03T06:26:50;20.90;99.90
4874;DHT22;2451;49.970;9.068;2022-08-03T06:29:16;20.90;99.90
4874;DHT22;2451;49.970;9.068;2022-08-03T06:31:41;21.10;99.90
4874;DHT22;2451;49.970;9.068;2022-08-03T06:34:07;21.10;99.90
4874;DHT22;2451;49.970;9.068;2022-08-03T06:36:32;21.30;99.90
4874;DHT22;2451;49.970;9.068;2022-08-03T06:38:58;21.40;99.90
4874;DHT22;2451;49.970;9.068;2022-08-03T06:41:25;21.60;99.90
4874;DHT22;2451;49.970;9.068;2022-08-03T06:43:51;21.70;99.90
4874;DHT22;2451;49.970;9.068;2022-08-03T06:46:17;22.00;99.90
4874;DHT22;2451;49.970;9.068;2022-08-03T06:48:43;22.10;99.90
4874;DHT22;2451;49.970;9.068;2022-08-03T06:51:09;22.40;99.90
4874;DHT22;2451;49.970;9.068;2022-08-03T06:53:34;22.60;99.90
4874;DHT22;2451;49.970;9.068;2022-08-03T06:56:00;22.70;99.90
4874;DHT22;2451;49.970;9.068;2022-08-03T06:58:25;22.90;99.90
4874;DHT22;2451;49.970;9.068;2022-08-03T07:00:51;23.20;99.90
4874;DHT22;2451;49.970;9.068;2022-08-03T07:03:17;23.30;99.90
4874;DHT22;2451;49.970;9.068;2022-08-03T07:05:43;23.60;99.90
4874;DHT22;2451;49.970;9.068;2022-08-03T07:08:10;23.80;99.90
4874;DHT22;2451;49.970;9.068;2022-08-03T07:10:36;24.00;99.90
4874;DHT22;2451;49.970;9.068;2022-08-03T07:13:02;24.10;99.90
4874;DHT22;2451;49.970;9.068;2022-08-03T07:15:28;24.20;99.90
4874;DHT22;2451;49.970;9.068;2022-08-03T07:17:55;24.50;99.90
4874;DHT22;2451;49.970;9.068;2022-08-03T07:20:20;24.70;99.90
4874;DHT22;2451;49.970;9.068;2022-08-03T07:22:46;25.00;99.90
4874;DHT22;2451;49.970;9.068;2022-08-03T07:25:12;25.20;99.90
4874;DHT22;2451;49.970;9.068;2022-08-03T07:27:37;25.40;99.90
4874;DHT22;2451;49.970;9.068;2022-08-03T07:30:07;25.50;99.90
4874;DHT22;2451;49.970;9.068;2022-08-03T07:32:34;25.80;99.90
4874;DHT22;2451;49.970;9.068;2022-08-03T07:35:00;25.90;99.40
4874;DHT22;2451;49.970;9.068;2022-08-03T07:37:25;26.00;98.80
4874;DHT22;2451;49.970;9.068;2022-08-03T07:39:51;26.20;97.80
4874;DHT22;2451;49.970;9.068;2022-08-03T07:42:16;26.40;97.70
4874;DHT22;2451;49.970;9.068;2022-08-03T07:44:42;26.70;96.50
4874;DHT22;2451;49.970;9.068;2022-08-03T07:47:08;27.00;97.10
4874;DHT22;2451;49.970;9.068;2022-08-03T07:49:38;27.30;95.50
4874;DHT22;2451;49.970;9.068;2022-08-03T07:52:04;27.60;94.60
4874;DHT22;2451;49.970;9.068;2022-08-03T07:54:48;27.80;93.70
4874;DHT22;2451;49.970;9.068;2022-08-03T07:57:14;27.90;93.30
4874;DHT22;2451;49.970;9.068;2022-08-03T07:59:39;28.10;93.00
4874;DHT22;2451;49.970;9.068;2022-08-03T08:02:05;28.30;92.40
4874;DHT22;2451;49.970;9.068;2022-08-03T08:04:31;28.40;90.60
4874;DHT22;2451;49.970;9.068;2022-08-03T08:06:57;28.70;90.50
4874;DHT22;2451;49.970;9.068;2022-08-03T08:09:22;28.80;89.40
4874;DHT22;2451;49.970;9.068;2022-08-03T08:11:48;28.90;88.30
4874;DHT22;2451;49.970;9.068;2022-08-03T08:14:14;29.20;86.80
4874;DHT22;2451;49.970;9.068;2022-08-03T08:16:39;29.40;85.40
4874;DHT22;2451;49.970;9.068;2022-08-03T08:19:05;29.70;84.00
4874;DHT22;2451;49.970;9.068;2022-08-03T08:21:31;29.70;83.00
4874;DHT22;2451;49.970;9.068;2022-08-03T08:23:56;29.90;80.80
4874;DHT22;2451;49.970;9.068;2022-08-03T08:26:22;29.90;80.90
4874;DHT22;2451;49.970;9.068;2022-08-03T08:28:47;30.00;80.30
4874;DHT22;2451;49.970;9.068;2022-08-03T08:31:13;30.10;79.00
4874;DHT22;2451;49.970;9.068;2022-08-03T08:33:39;30.20;79.90
4874;DHT22;2451;49.970;9.068;2022-08-03T08:36:04;30.20;76.60
4874;DHT22;2451;49.970;9.068;2022-08-03T08:38:30;30.20;78.10
4874;DHT22;2451;49.970;9.068;2022-08-03T08:40:55;30.60;76.60
4874;DHT22;2451;49.970;9.068;2022-08-03T08:43:21;30.80;74.50
4874;DHT22;2451;49.970;9.068;2022-08-03T08:45:51;31.00;73.50
4874;DHT22;2451;49.970;9.068;2022-08-03T08:48:23;31.20;69.50
4874;DHT22;2451;49.970;9.068;2022-08-03T08:50:53;31.40;70.80
4874;DHT22;2451;49.970;9.068;2022-08-03T08:53:20;31.70;67.30
4874;DHT22;2451;49.970;9.068;2022-08-03T08:55:46;31.80;65.10
4874;DHT22;2451;49.970;9.068;2022-08-03T08:58:13;31.50;63.50
4874;DHT22;2451;49.970;9.068;2022-08-03T09:00:43;31.50;64.50
4874;DHT22;2451;49.970;9.068;2022-08-03T09:03:09;31.50;63.60
4874;DHT22;2451;49.970;9.068;2022-08-03T09:05:36;31.40;62.10
4874;DHT22;2451;49.970;9.068;2022-08-03T09:08:04;31.70;62.00
4874;DHT22;2451;49.970;9.068;2022-08-03T09:10:30;31.90;60.80
4874;DHT22;2451;49.970;9.068;2022-08-03T09:12:55;32.10;61.00
4874;DHT22;2451;49.970;9.068;2022-08-03T09:15:23;32.30;59.20
4874;DHT22;2451;49.970;9.068;2022-08-03T09:17:51;32.30;58.80
4874;DHT22;2451;49.970;9.068;2022-08-03T09:20:18;32.40;58.70
4874;DHT22;2451;49.970;9.068;2022-08-03T09:23:19;32.60;58.60
4874;DHT22;2451;49.970;9.068;2022-08-03T09:25:45;32.90;57.60
4874;DHT22;2451;49.970;9.068;2022-08-03T09:28:15;33.10;56.00
4874;DHT22;2451;49.970;9.068;2022-08-03T09:30:44;33.30;56.40
4874;DHT22;2451;49.970;9.068;2022-08-03T09:33:11;33.30;55.30
4874;DHT22;2451;49.970;9.068;2022-08-03T09:35:47;33.10;55.20
4874;DHT22;2451;49.970;9.068;2022-08-03T09:38:14;33.40;54.10
4874;DHT22;2451;49.970;9.068;2022-08-03T09:40:40;33.50;53.30
4874;DHT22;2451;49.970;9.068;2022-08-03T09:43:06;33.70;54.10
4874;DHT22;2451;49.970;9.068;2022-08-03T09:45:37;33.80;53.60
4874;DHT22;2451;49.970;9.068;2022-08-03T09:48:24;34.00;54.00
4874;DHT22;2451;49.970;9.068;2022-08-03T09:50:52;34.10;51.60
4874;DHT22;2451;49.970;9.068;2022-08-03T09:53:18;34.30;52.30
4874;DHT22;2451;49.970;9.068;2022-08-03T09:55:58;34.60;52.70
4874;DHT22;2451;49.970;9.068;2022-08-03T09:58:25;34.80;51.20
4874;DHT22;2451;49.970;9.068;2022-08-03T10:00:55;34.80;50.20
4874;DHT22;2451;49.970;9.068;2022-08-03T10:03:22;35.10;50.10
4874;DHT22;2451;49.970;9.068;2022-08-03T10:05:48;35.10;49.50
4874;DHT22;2451;49.970;9.068;2022-08-03T10:08:14;34.90;49.50
4874;DHT22;2451;49.970;9.068;2022-08-03T10:10:42;34.90;49.90
4874;DHT22;2451;49.970;9.068;2022-08-03T10:13:12;34.90;49.40
4874;DHT22;2451;49.970;9.068;2022-08-03T10:15:38;35.20;49.10
4874;DHT22;2451;49.970;9.068;2022-08-03T10:18:04;35.40;49.70
4874;DHT22;2451;49.970;9.068;2022-08-03T10:23:16;35.70;47.70
4874;DHT22;2451;49.970;9.068;2022-08-03T10:25:44;36.00;48.60
4874;DHT22;2451;49.970;9.068;2022-08-03T10:28:14;35.90;48.00
4874;DHT22;2451;49.970;9.068;2022-08-03T10:30:43;36.00;47.40
4874;DHT22;2451;49.970;9.068;2022-08-03T10:33:17;36.10;48.60
4874;DHT22;2451;49.970;9.068;2022-08-03T10:35:44;36.20;46.70
4874;DHT22;2451;49.970;9.068;2022-08-03T10:38:18;36.20;47.00
4874;DHT22;2451;49.970;9.068;2022-08-03T10:40:45;36.10;46.50
4874;DHT22;2451;49.970;9.068;2022-08-03T10:43:25;36.20;46.00
4874;DHT22;2451;49.970;9.068;2022-08-03T10:45:51;36.30;45.40
4874;DHT22;2451;49.970;9.068;2022-08-03T10:48:18;36.00;46.00
4874;DHT22;2451;49.970;9.068;2022-08-03T10:50:45;35.80;45.30
4874;DHT22;2451;49.970;9.068;2022-08-03T10:53:12;35.70;45.90
4874;DHT22;2451;49.970;9.068;2022-08-03T10:55:43;35.50;45.60
4874;DHT22;2451;49.970;9.068;2022-08-03T11:01:04;35.60;46.50
4874;DHT22;2451;49.970;9.068;2022-08-03T11:03:30;36.00;47.30
4874;DHT22;2451;49.970;9.068;2022-08-03T11:06:15;36.00;44.80
4874;DHT22;2451;49.970;9.068;2022-08-03T11:08:44;35.80;45.10
4874;DHT22;2451;49.970;9.068;2022-08-03T11:16:43;36.50;44.50
4874;DHT22;2451;49.970;9.068;2022-08-03T11:19:17;36.60;45.10
4874;DHT22;2451;49.970;9.068;2022-08-03T11:27:17;37.00;43.70
4874;DHT22;2451;49.970;9.068;2022-08-03T11:35:20;37.00;44.20
4874;DHT22;2451;49.970;9.068;2022-08-03T11:40:44;37.20;43.50
4874;DHT22;2451;49.970;9.068;2022-08-03T11:46:08;37.50;43.80
4874;DHT22;2451;49.970;9.068;2022-08-03T11:48:46;37.80;44.60
4874;DHT22;2451;49.970;9.068;2022-08-03T11:53:44;38.20;43.30
4874;DHT22;2451;49.970;9.068;2022-08-03T11:56:12;37.80;42.60
4874;DHT22;2451;49.970;9.068;2022-08-03T11:58:49;37.30;42.80
4874;DHT22;2451;49.970;9.068;2022-08-03T12:01:17;37.00;42.90
4874;DHT22;2451;49.970;9.068;2022-08-03T12:03:43;37.20;43.50
4874;DHT22;2451;49.970;9.068;2022-08-03T12:06:10;37.30;42.90
4874;DHT22;2451;49.970;9.068;2022-08-03T12:08:36;37.10;43.20
4874;DHT22;2451;49.970;9.068;2022-08-03T12:11:04;37.10;43.60
4874;DHT22;2451;49.970;9.068;2022-08-03T12:13:43;37.10;43.30
4874;DHT22;2451;49.970;9.068;2022-08-03T12:16:11;37.00;43.80
4874;DHT22;2451;49.970;9.068;2022-08-03T12:18:41;36.70;42.90
4874;DHT22;2451;49.970;9.068;2022-08-03T12:21:08;36.70;43.00
4874;DHT22;2451;49.970;9.068;2022-08-03T12:23:35;36.70;43.20
4874;DHT22;2451;49.970;9.068;2022-08-03T12:26:03;36.80;43.00
4874;DHT22;2451;49.970;9.068;2022-08-03T12:28:29;36.80;43.10
4874;DHT22;2451;49.970;9.068;2022-08-03T12:30:54;37.20;43.30
4874;DHT22;2451;49.970;9.068;2022-08-03T12:33:23;37.50;43.60
4874;DHT22;2451;49.970;9.068;2022-08-03T12:36:09;37.60;42.20
4874;DHT22;2451;49.970;9.068;2022-08-03T12:38:37;37.90;42.20
4874;DHT22;2451;49.970;9.068;2022-08-03T12:41:08;37.80;41.60
4874;DHT22;2451;49.970;9.068;2022-08-03T12:43:49;37.80;41.40
4874;DHT22;2451;49.970;9.068;2022-08-03T12:46:17;37.80;42.20
4874;DHT22;2451;49.970;9.068;2022-08-03T12:51:24;37.90;41.10
4874;DHT22;2451;49.970;9.068;2022-08-03T12:53:56;37.70;41.30
4874;DHT22;2451;49.970;9.068;2022-08-03T12:56:23;37.50;41.40
4874;DHT22;2451;49.970;9.068;2022-08-03T12:58:48;37.30;41.80
4874;DHT22;2451;49.970;9.068;2022-08-03T13:01:18;37.40;41.60
4874;DHT22;2451;49.970;9.068;2022-08-03T13:03:47;37.50;42.60
4874;DHT22;2451;49.970;9.068;2022-08-03T13:06:15;37.50;41.30
4874;DHT22;2451;49.970;9.068;2022-08-03T13:08:41;37.30;41.80
4874;DHT22;2451;49.970;9.068;2022-08-03T13:11:24;37.50;41.90
4874;DHT22;2451;49.970;9.068;2022-08-03T13:13:51;37.70;42.10
4874;DHT22;2451;49.970;9.068;2022-08-03T13:16:17;38.00;41.60
4874;DHT22;2451;49.970;9.068;2022-08-03T13:18:42;37.90;40.40
4874;DHT22;2451;49.970;9.068;2022-08-03T13:21:11;37.80;40.20
4874;DHT22;2451;49.970;9.068;2022-08-03T13:23:37;37.60;40.80
4874;DHT22;2451;49.970;9.068;2022-08-03T13:26:03;37.80;41.20
4874;DHT22;2451;49.970;9.068;2022-08-03T13:28:28;37.80;40.40
4874;DHT22;2451;49.970;9.068;2022-08-03T13:30:54;37.70;40.40
4874;DHT22;2451;49.970;9.068;2022-08-03T13:33:19;37.70;40.40
4874;DHT22;2451;49.970;9.068;2022-08-03T13:35:45;37.80;41.60
4874;DHT22;2451;49.970;9.068;2022-08-03T13:38:10;37.80;41.20
4874;DHT22;2451;49.970;9.068;2022-08-03T13:40:36;37.90;40.40
4874;DHT22;2451;49.970;9.068;2022-08-03T13:43:02;37.70;40.60
4874;DHT22;2451;49.970;9.068;2022-08-03T13:45:28;37.10;40.40
4874;DHT22;2451;49.970;9.068;2022-08-03T13:47:54;37.10;41.50
4874;DHT22;2451;49.970;9.068;2022-08-03T13:50:19;37.40;42.50
4874;DHT22;2451;49.970;9.068;2022-08-03T13:52:45;37.40;41.00
4874;DHT22;2451;49.970;9.068;2022-08-03T13:55:11;37.10;40.90
4874;DHT22;2451;49.970;9.068;2022-08-03T13:57:36;37.00;41.00
4874;DHT22;2451;49.970;9.068;2022-08-03T14:00:04;37.10;41.90
4874;DHT22;2451;49.970;9.068;2022-08-03T14:02:30;37.40;41.70
4874;DHT22;2451;49.970;9.068;2022-08-03T14:04:55;37.60;42.00
4874;DHT22;2451;49.970;9.068;2022-08-03T14:07:21;37.90;41.90
4874;DHT22;2451;49.970;9.068;2022-08-03T14:09:47;37.90;40.70
4874;DHT22;2451;49.970;9.068;2022-08-03T14:12:12;37.90;40.40
4874;DHT22;2451;49.970;9.068;2022-08-03T14:14:38;38.00;41.20
4874;DHT22;2451;49.970;9.068;2022-08-03T14:17:03;38.00;40.00
4874;DHT22;2451;49.970;9.068;2022-08-03T14:19:29;37.90;39.90
4874;DHT22;2451;49.970;9.068;2022-08-03T14:21:54;37.90;40.40
4874;DHT22;2451;49.970;9.068;2022-08-03T14:24:20;37.80;40.00
4874;DHT22;2451;49.970;9.068;2022-08-03T14:26:46;37.70;41.00
4874;DHT22;2451;49.970;9.068;2022-08-03T14:29:11;37.60;41.20
4874;DHT22;2451;49.970;9.068;2022-08-03T14:31:37;37.50;41.20
4874;DHT22;2451;49.970;9.068;2022-08-03T14:34:03;37.70;41.30
4874;DHT22;2451;49.970;9.068;2022-08-03T14:36:28;37.80;41.50
4874;DHT22;2451;49.970;9.068;2022-08-03T14:38:54;37.90;40.50
4874;DHT22;2451;49.970;9.068;2022-08-03T14:41:19;38.10;40.70
4874;DHT22;2451;49.970;9.068;2022-08-03T14:43:45;38.20;41.00
4874;DHT22;2451;49.970;9.068;2022-08-03T14:46:11;38.00;39.60
4874;DHT22;2451;49.970;9.068;2022-08-03T14:48:36;37.80;40.10
4874;DHT22;2451;49.970;9.068;2022-08-03T14:51:02;37.50;40.20
4874;DHT22;2451;49.970;9.068;2022-08-03T14:53:28;37.40;41.00
4874;DHT22;2451;49.970;9.068;2022-08-03T14:55:54;37.40;41.30
4874;DHT22;2451;49.970;9.068;2022-08-03T14:58:21;37.40;41.40
4874;DHT22;2451;49.970;9.068;2022-08-03T15:00:48;37.40;40.80
4874;DHT22;2451;49.970;9.068;2022-08-03T15:03:14;37.30;40.70
4874;DHT22;2451;49.970;9.068;2022-08-03T15:05:40;37.20;41.20
4874;DHT22;2451;49.970;9.068;2022-08-03T15:08:05;37.20;40.20
4874;DHT22;2451;49.970;9.068;2022-08-03T15:10:31;37.10;41.30
4874;DHT22;2451;49.970;9.068;2022-08-03T15:12:56;37.10;41.30
4874;DHT22;2451;49.970;9.068;2022-08-03T15:15:22;36.90;41.30
4874;DHT22;2451;49.970;9.068;2022-08-03T15:17:48;36.90;41.50
4874;DHT22;2451;49.970;9.068;2022-08-03T15:20:13;36.70;41.80
4874;DHT22;2451;49.970;9.068;2022-08-03T15:22:39;36.40;41.90
4874;DHT22;2451;49.970;9.068;2022-08-03T15:25:05;36.30;42.00
4874;DHT22;2451;49.970;9.068;2022-08-03T15:27:31;36.10;42.00
4874;DHT22;2451;49.970;9.068;2022-08-03T15:29:57;36.10;42.90
4874;DHT22;2451;49.970;9.068;2022-08-03T15:32:22;36.20;42.10
4874;DHT22;2451;49.970;9.068;2022-08-03T15:34:48;36.20;42.00
4874;DHT22;2451;49.970;9.068;2022-08-03T15:37:15;36.20;41.80
4874;DHT22;2451;49.970;9.068;2022-08-03T15:39:40;36.00;42.40
4874;DHT22;2451;49.970;9.068;2022-08-03T15:42:06;35.90;42.20
4874;DHT22;2451;49.970;9.068;2022-08-03T15:44:32;35.80;42.50
4874;DHT22;2451;49.970;9.068;2022-08-03T15:46:57;35.60;42.20
4874;DHT22;2451;49.970;9.068;2022-08-03T15:49:23;35.50;43.20
4874;DHT22;2451;49.970;9.068;2022-08-03T15:51:48;35.50;42.80
4874;DHT22;2451;49.970;9.068;2022-08-03T15:54:13;35.60;42.80
4874;DHT22;2451;49.970;9.068;2022-08-03T15:56:39;35.70;42.60
4874;DHT22;2451;49.970;9.068;2022-08-03T15:59:09;35.70;42.50
4874;DHT22;2451;49.970;9.068;2022-08-03T16:01:35;35.70;42.70
4874;DHT22;2451;49.970;9.068;2022-08-03T16:04:00;35.70;42.50
4874;DHT22;2451;49.970;9.068;2022-08-03T16:06:26;35.60;42.50
4874;DHT22;2451;49.970;9.068;2022-08-03T16:08:51;35.50;42.90
4874;DHT22;2451;49.970;9.068;2022-08-03T16:11:17;35.50;42.60
4874;DHT22;2451;49.970;9.068;2022-08-03T16:13:42;35.40;42.50
4874;DHT22;2451;49.970;9.068;2022-08-03T16:16:08;35.30;42.80
4874;DHT22;2451;49.970;9.068;2022-08-03T16:18:33;35.20;42.90
4874;DHT22;2451;49.970;9.068;2022-08-03T16:20:59;35.10;42.90
4874;DHT22;2451;49.970;9.068;2022-08-03T16:23:25;35.10;43.00
4874;DHT22;2451;49.970;9.068;2022-08-03T16:25:51;35.10;43.30
4874;DHT22;2451;49.970;9.068;2022-08-03T16:28:17;35.10;43.60
4874;DHT22;2451;49.970;9.068;2022-08-03T16:30:44;35.10;43.40
4874;DHT22;2451;49.970;9.068;2022-08-03T16:33:11;35.10;43.50
4874;DHT22;2451;49.970;9.068;2022-08-03T16:35:37;35.10;43.40
4874;DHT22;2451;49.970;9.068;2022-08-03T16:38:04;35.10;43.50
4874;DHT22;2451;49.970;9.068;2022-08-03T16:40:30;35.10;43.10
4874;DHT22;2451;49.970;9.068;2022-08-03T16:42:56;35.10;43.60
4874;DHT22;2451;49.970;9.068;2022-08-03T16:45:21;35.10;43.80
4874;DHT22;2451;49.970;9.068;2022-08-03T16:47:47;35.10;43.60